Time;durP1;ratioP1;P1;durP2;ratioP2;P2;SDS_P1;SDS_P2;PMS_P1;PMS_P2;Temp;Humidity;BMP_temperature;BMP_pressure;BME280_temperature;BME280_humidity;BME280_pressure;Samples;Min_cycle;Max_cycle;Signal;HPM_P1;HPM_P2
2023/04/26 00:02:11;;;;;;;7.80;2.63;;;;;;;;;;5093564;28;20077;-60
2023/04/26 00:04:37;;;;;;;14.20;3.20;;;;;;;;;;5093408;28;20077;-61
2023/04/26 00:07:04;;;;;;;7.30;2.50;;;;;;;;;;5093394;28;20048;-60
2023/04/26 00:09:30;;;;;;;8.20;3.05;;;;;;;;;;5093191;28;20366;-59
2023/04/26 00:11:56;;;;;;;8.00;2.58;;;;;;;;;;5091986;28;20035;-61
2023/04/26 00:14:22;;;;;;;8.35;2.78;;;;;;;;;;5093324;28;20101;-59
2023/04/26 00:16:48;;;;;;;9.07;3.05;;;;;;;;;;5091631;28;20032;-60
2023/04/26 00:19:15;;;;;;;9.25;3.30;;;;;;;;;;5093073;28;20020;-60
2023/04/26 00:21:41;;;;;;;8.43;3.00;;;;;;;;;;5093101;28;20376;-61
2023/04/26 00:24:07;;;;;;;7.07;3.10;;;;;;;;;;5093028;28;20051;-62
2023/04/26 00:26:33;;;;;;;9.73;2.80;;;;;;;;;;5092734;28;20074;-59
2023/04/26 00:29:00;;;;;;;4.93;2.58;;;;;;;;;;5092275;28;20042;-59
2023/04/26 00:31:27;;;;;;;6.93;2.90;;;;;;;;;;5092918;28;20511;-61
2023/04/26 00:33:53;;;;;;;5.93;2.95;;;;;;;;;;5092833;28;20024;-61
2023/04/26 00:36:19;;;;;;;6.22;2.72;;;;;;;;;;5092986;28;20103;-61
2023/04/26 00:38:45;;;;;;;6.95;3.22;;;;;;;;;;5092447;28;20477;-60
2023/04/26 00:41:12;;;;;;;7.10;2.78;;;;;;;;;;5092708;28;20115;-59
2023/04/26 00:43:38;;;;;;;7.10;2.78;;;;;;;;;;5092855;28;20472;-60
2023/04/26 00:46:05;;;;;;;4.30;2.22;;;;;;;;;;5092181;28;20124;-61
2023/04/26 00:48:31;;;;;;;6.85;2.47;;;;;;;;;;5092134;28;20079;-60
2023/04/26 00:50:57;;;;;;;6.18;2.90;;;;;;;;;;5092247;28;20043;-60
2023/04/26 00:53:23;;;;;;;10.50;2.83;;;;;;;;;;5092355;28;20593;-60
2023/04/26 00:55:50;;;;;;;6.00;2.95;;;;;;;;;;5092245;28;20494;-61
2023/04/26 00:58:19;;;;;;;9.98;2.72;;;;;;;;;;5092406;28;20024;-60
2023/04/26 01:00:45;;;;;;;10.25;3.03;;;;;;;;;;5090968;28;20059;-60
2023/04/26 01:03:11;;;;;;;6.82;2.80;;;;;;;;;;5110311;28;20174;-60
2023/04/26 01:05:38;;;;;;;9.10;3.33;;;;;;;;;;5112742;28;20049;-61
2023/04/26 01:08:04;;;;;;;11.02;3.22;;;;;;;;;;5112579;28;20059;-60
2023/04/26 01:10:34;;;;;;;9.18;2.60;;;;;;;;;;5112116;28;20403;-60
2023/04/26 01:13:00;;;;;;;9.38;2.88;;;;;;;;;;5112568;28;20112;-61
2023/04/26 01:15:27;;;;;;;8.60;3.00;;;;;;;;;;5112526;28;20050;-61
2023/04/26 01:17:53;;;;;;;7.35;2.72;;;;;;;;;;5112414;28;20057;-61
2023/04/26 01:20:20;;;;;;;4.63;2.70;;;;;;;;;;5111113;28;20026;-60
2023/04/26 01:22:46;;;;;;;6.78;3.17;;;;;;;;;;5112268;28;20028;-60
2023/04/26 01:25:12;;;;;;;9.13;3.05;;;;;;;;;;5111997;28;20161;-60
2023/04/26 01:27:38;;;;;;;5.90;3.20;;;;;;;;;;5112167;28;20479;-60
2023/04/26 01:30:05;;;;;;;9.93;3.28;;;;;;;;;;5112144;28;20036;-60
2023/04/26 01:32:31;;;;;;;9.55;3.10;;;;;;;;;;5111920;28;20026;-60
2023/04/26 01:34:57;;;;;;;7.00;3.30;;;;;;;;;;5110003;28;20023;-61
2023/04/26 01:37:23;;;;;;;5.60;2.75;;;;;;;;;;5091446;28;20029;-60
2023/04/26 01:39:50;;;;;;;13.70;3.10;;;;;;;;;;5091719;28;20035;-60
2023/04/26 01:42:16;;;;;;;10.68;3.53;;;;;;;;;;5091618;28;20099;-60
2023/04/26 01:44:42;;;;;;;9.32;3.20;;;;;;;;;;5091465;28;20077;-60
2023/04/26 01:47:08;;;;;;;5.82;3.25;;;;;;;;;;5091265;28;20400;-59
2023/04/26 01:49:34;;;;;;;13.02;3.42;;;;;;;;;;5091091;28;20086;-60
2023/04/26 01:52:01;;;;;;;11.27;3.28;;;;;;;;;;5090775;28;20027;-60
2023/04/26 01:54:27;;;;;;;9.75;3.25;;;;;;;;;;5091469;28;20357;-61
2023/04/26 01:56:53;;;;;;;10.68;3.70;;;;;;;;;;5091352;28;20024;-61
2023/04/26 01:59:19;;;;;;;11.93;3.40;;;;;;;;;;5091365;28;20150;-60
2023/04/26 02:01:45;;;;;;;7.15;3.05;;;;;;;;;;5091316;28;20073;-61
2023/04/26 02:04:11;;;;;;;9.95;3.13;;;;;;;;;;5091324;28;20412;-60
2023/04/26 02:06:37;;;;;;;8.45;3.65;;;;;;;;;;5090608;28;20514;-61
2023/04/26 02:09:04;;;;;;;7.25;3.85;;;;;;;;;;5090950;28;20027;-60
2023/04/26 02:11:31;;;;;;;9.75;3.72;;;;;;;;;;5090992;28;20059;-59
2023/04/26 02:13:57;;;;;;;7.20;3.58;;;;;;;;;;5091193;28;20514;-61
2023/04/26 02:16:23;;;;;;;9.77;3.67;;;;;;;;;;5090611;28;20028;-60
2023/04/26 02:18:49;;;;;;;7.90;3.28;;;;;;;;;;5090842;28;20476;-60
2023/04/26 02:21:18;;;;;;;4.97;3.03;;;;;;;;;;5090909;28;20423;-60
2023/04/26 02:23:45;;;;;;;9.18;3.50;;;;;;;;;;5090328;28;20046;-61
2023/04/26 02:26:11;;;;;;;11.45;3.53;;;;;;;;;;5090951;28;20035;-60
2023/04/26 02:28:37;;;;;;;12.27;3.75;;;;;;;;;;5090691;28;20031;-60
2023/04/26 02:31:03;;;;;;;10.27;3.58;;;;;;;;;;5090900;28;20024;-61
2023/04/26 02:33:30;;;;;;;9.73;3.55;;;;;;;;;;5090833;28;20609;-61
2023/04/26 02:35:56;;;;;;;6.93;3.35;;;;;;;;;;5090994;28;20028;-60
2023/04/26 02:38:22;;;;;;;10.55;3.28;;;;;;;;;;5090967;28;20016;-61
2023/04/26 02:40:48;;;;;;;8.23;3.28;;;;;;;;;;5093570;28;20020;-60
2023/04/26 02:43:14;;;;;;;8.50;3.00;;;;;;;;;;5111197;28;20484;-61
2023/04/26 02:45:41;;;;;;;11.27;3.35;;;;;;;;;;5111209;28;20137;-61
2023/04/26 02:48:08;;;;;;;6.63;2.80;;;;;;;;;;5110887;28;20230;-60
2023/04/26 02:50:34;;;;;;;6.63;2.63;;;;;;;;;;5111112;28;20031;-60
2023/04/26 02:53:00;;;;;;;10.75;2.70;;;;;;;;;;5111130;28;20384;-61
2023/04/26 02:55:26;;;;;;;10.27;3.10;;;;;;;;;;5111110;28;20130;-60
2023/04/26 02:57:53;;;;;;;8.48;2.67;;;;;;;;;;5110065;28;20027;-60
2023/04/26 03:00:19;;;;;;;5.22;3.00;;;;;;;;;;5110039;28;20102;-61
2023/04/26 03:02:45;;;;;;;5.85;2.58;;;;;;;;;;5111144;28;20034;-60
2023/04/26 03:05:12;;;;;;;6.93;2.90;;;;;;;;;;5110947;28;20023;-60
2023/04/26 03:07:38;;;;;;;9.55;2.55;;;;;;;;;;5111015;28;20604;-61
2023/04/26 03:10:04;;;;;;;8.88;2.58;;;;;;;;;;5110959;28;20035;-60
2023/04/26 03:12:30;;;;;;;6.85;2.60;;;;;;;;;;5111031;28;20019;-60
2023/04/26 03:14:56;;;;;;;6.60;2.53;;;;;;;;;;5109700;28;20028;-61
2023/04/26 03:17:22;;;;;;;6.22;2.58;;;;;;;;;;5110823;28;20020;-59
2023/04/26 03:19:48;;;;;;;5.93;2.80;;;;;;;;;;5110609;28;20032;-64
2023/04/26 03:22:15;;;;;;;6.72;2.88;;;;;;;;;;5110896;28;20069;-62
2023/04/26 03:24:45;;;;;;;9.75;2.80;;;;;;;;;;5110963;28;20031;-61
2023/04/26 03:27:11;;;;;;;6.93;2.03;;;;;;;;;;5112025;28;20068;-61
2023/04/26 03:29:37;;;;;;;8.65;2.47;;;;;;;;;;5114383;28;20034;-61
2023/04/26 03:32:03;;;;;;;5.65;2.50;;;;;;;;;;5113136;28;20345;-60
2023/04/26 03:34:29;;;;;;;8.27;2.40;;;;;;;;;;5094276;28;20070;-61
2023/04/26 03:36:55;;;;;;;9.30;2.33;;;;;;;;;;5093988;28;20017;-61
2023/04/26 03:39:21;;;;;;;6.63;2.60;;;;;;;;;;5093868;28;20484;-61
2023/04/26 03:41:48;;;;;;;5.68;2.63;;;;;;;;;;5092400;28;20047;-61
2023/04/26 03:44:14;;;;;;;8.55;2.70;;;;;;;;;;5093773;28;20107;-60
2023/04/26 03:46:40;;;;;;;7.63;2.08;;;;;;;;;;5093498;28;20481;-60
2023/04/26 03:49:06;;;;;;;10.07;2.58;;;;;;;;;;5093121;28;20036;-61
2023/04/26 03:51:33;;;;;;;9.80;2.50;;;;;;;;;;5103184;28;20026;-61
2023/04/26 03:53:59;;;;;;;6.95;2.55;;;;;;;;;;5113525;28;20035;-61
2023/04/26 03:56:25;;;;;;;6.10;2.55;;;;;;;;;;5112910;28;20038;-60
2023/04/26 03:58:51;;;;;;;7.25;2.67;;;;;;;;;;5113592;28;20034;-61
2023/04/26 04:01:18;;;;;;;13.27;3.03;;;;;;;;;;5112345;28;20030;-61
2023/04/26 04:03:45;;;;;;;13.18;3.28;;;;;;;;;;5114071;28;20080;-60
2023/04/26 04:06:11;;;;;;;9.48;2.90;;;;;;;;;;5112310;28;20028;-60
2023/04/26 04:08:37;;;;;;;10.45;3.10;;;;;;;;;;5113493;28;20024;-60
2023/04/26 04:11:03;;;;;;;8.50;2.35;;;;;;;;;;5113641;28;20031;-61
2023/04/26 04:13:30;;;;;;;6.72;2.10;;;;;;;;;;5113425;28;20015;-61
2023/04/26 04:15:56;;;;;;;7.22;2.72;;;;;;;;;;5113494;28;20379;-59
2023/04/26 04:18:22;;;;;;;11.82;2.95;;;;;;;;;;5113472;28;20031;-61
2023/04/26 04:20:48;;;;;;;4.28;2.47;;;;;;;;;;5113090;28;20027;-61
2023/04/26 04:23:14;;;;;;;7.55;2.63;;;;;;;;;;5112027;28;20035;-61
2023/04/26 04:25:40;;;;;;;11.63;2.55;;;;;;;;;;5113208;28;20447;-61
2023/04/26 04:28:07;;;;;;;9.10;2.55;;;;;;;;;;5113333;28;20426;-60
2023/04/26 04:30:33;;;;;;;8.85;2.60;;;;;;;;;;5112926;28;20039;-61
2023/04/26 04:32:59;;;;;;;10.52;2.60;;;;;;;;;;5112857;28;20024;-59
2023/04/26 04:35:28;;;;;;;7.72;2.58;;;;;;;;;;5112946;28;20081;-60
2023/04/26 04:37:56;;;;;;;7.68;2.95;;;;;;;;;;5112560;28;20028;-61
2023/04/26 04:40:24;;;;;;;8.13;2.90;;;;;;;;;;5111241;28;20028;-61
2023/04/26 04:42:50;;;;;;;18.20;3.00;;;;;;;;;;5112743;28;20111;-60
2023/04/26 04:45:16;;;;;;;6.40;2.88;;;;;;;;;;5112640;28;20020;-59
2023/04/26 04:47:44;;;;;;;6.40;2.78;;;;;;;;;;5112433;28;20048;-61
2023/04/26 04:50:10;;;;;;;6.90;2.47;;;;;;;;;;5112422;28;20028;-62
2023/04/26 04:52:36;;;;;;;15.13;3.13;;;;;;;;;;5112814;28;20024;-61
2023/04/26 04:55:03;;;;;;;8.30;2.85;;;;;;;;;;5112832;28;20024;-61
2023/04/26 04:57:30;;;;;;;9.13;3.78;;;;;;;;;;5098704;27;20021;-61
2023/04/26 04:59:56;;;;;;;12.40;3.30;;;;;;;;;;5092286;28;20158;-61
2023/04/26 05:02:22;;;;;;;11.45;3.50;;;;;;;;;;5092447;28;20118;-61
2023/04/26 05:04:48;;;;;;;8.63;3.20;;;;;;;;;;5091934;28;20031;-62
2023/04/26 05:07:14;;;;;;;7.80;2.95;;;;;;;;;;5092185;28;20024;-61
2023/04/26 05:09:44;;;;;;;9.82;2.95;;;;;;;;;;5093878;28;20072;-63
2023/04/26 05:12:10;;;;;;;6.07;3.50;;;;;;;;;;5112302;28;20055;-62
2023/04/26 05:14:36;;;;;;;12.52;3.22;;;;;;;;;;5104810;28;20019;-61
2023/04/26 05:17:02;;;;;;;9.75;2.92;;;;;;;;;;5092059;28;20048;-61
2023/04/26 05:19:29;;;;;;;5.03;2.63;;;;;;;;;;5102182;28;20020;-60
2023/04/26 05:21:56;;;;;;;14.70;3.30;;;;;;;;;;5112275;28;20499;-61
2023/04/26 05:24:23;;;;;;;8.68;2.70;;;;;;;;;;5111955;28;20495;-61
2023/04/26 05:26:49;;;;;;;9.32;2.67;;;;;;;;;;5111965;28;20028;-61
2023/04/26 05:29:15;;;;;;;11.95;2.90;;;;;;;;;;5112250;28;20041;-61
2023/04/26 05:31:41;;;;;;;7.53;2.80;;;;;;;;;;5110785;28;20031;-60
2023/04/26 05:34:07;;;;;;;9.10;3.20;;;;;;;;;;5111918;28;20114;-61
2023/04/26 05:36:33;;;;;;;11.32;3.47;;;;;;;;;;5111747;28;20028;-60
2023/04/26 05:38:59;;;;;;;10.07;3.17;;;;;;;;;;5111413;28;20032;-60
2023/04/26 05:41:25;;;;;;;9.23;2.47;;;;;;;;;;5112092;28;20452;-62
2023/04/26 05:43:51;;;;;;;7.78;2.33;;;;;;;;;;5111921;28;20102;-61
2023/04/26 05:46:17;;;;;;;7.00;2.67;;;;;;;;;;5111357;28;20062;-61
2023/04/26 05:48:44;;;;;;;10.98;2.45;;;;;;;;;;5110157;28;20027;-60
2023/04/26 05:51:10;;;;;;;13.23;3.22;;;;;;;;;;5111114;28;20028;-61
2023/04/26 05:53:36;;;;;;;12.20;2.60;;;;;;;;;;5111606;28;20081;-61
2023/04/26 05:56:02;;;;;;;7.05;2.55;;;;;;;;;;5111698;28;20055;-62
2023/04/26 05:58:28;;;;;;;6.32;2.65;;;;;;;;;;5110378;28;20020;-63
2023/04/26 06:00:55;;;;;;;7.53;2.60;;;;;;;;;;5111407;28;20022;-62
2023/04/26 06:03:21;;;;;;;6.70;2.70;;;;;;;;;;5111406;28;20042;-61
2023/04/26 06:05:47;;;;;;;6.13;2.45;;;;;;;;;;5111269;28;20032;-61
2023/04/26 06:08:13;;;;;;;8.50;2.60;;;;;;;;;;5111620;28;20595;-61
2023/04/26 06:10:39;;;;;;;7.70;2.72;;;;;;;;;;5111396;28;20115;-61
2023/04/26 06:13:05;;;;;;;9.43;2.50;;;;;;;;;;5110636;28;20015;-63
2023/04/26 06:15:31;;;;;;;7.07;2.85;;;;;;;;;;5107973;28;20515;-60
2023/04/26 06:17:58;;;;;;;6.95;2.42;;;;;;;;;;5091045;28;20107;-62
2023/04/26 06:20:24;;;;;;;9.80;2.60;;;;;;;;;;5090882;28;20354;-61
2023/04/26 06:22:50;;;;;;;9.50;2.45;;;;;;;;;;5090970;28;20052;-61
2023/04/26 06:25:16;;;;;;;5.72;1.98;;;;;;;;;;5091185;28;20153;-61
2023/04/26 06:27:42;;;;;;;5.43;2.50;;;;;;;;;;5090934;28;20404;-61
2023/04/26 06:30:08;;;;;;;9.25;2.65;;;;;;;;;;5091048;28;20043;-62
2023/04/26 06:32:35;;;;;;;8.10;2.60;;;;;;;;;;5090591;28;20028;-60
2023/04/26 06:35:01;;;;;;;4.72;2.03;;;;;;;;;;5090709;28;20028;-61
2023/04/26 06:37:27;;;;;;;13.68;2.92;;;;;;;;;;5090882;28;20019;-62
2023/04/26 06:39:53;;;;;;;6.95;2.50;;;;;;;;;;5090980;28;20043;-61
2023/04/26 06:42:19;;;;;;;6.20;2.25;;;;;;;;;;5091072;28;20023;-62
2023/04/26 06:44:46;;;;;;;7.45;1.92;;;;;;;;;;5090962;28;20262;-62
2023/04/26 06:47:12;;;;;;;5.90;2.35;;;;;;;;;;5094981;28;20047;-60
2023/04/26 06:49:38;;;;;;;8.98;2.40;;;;;;;;;;5110430;28;20040;-61
2023/04/26 06:52:05;;;;;;;7.85;2.92;;;;;;;;;;5102920;28;20503;-61
2023/04/26 06:54:32;;;;;;;6.40;2.20;;;;;;;;;;5099167;28;20498;-61
2023/04/26 06:56:58;;;;;;;7.43;2.10;;;;;;;;;;5102561;28;20028;-61
2023/04/26 06:59:24;;;;;;;12.98;2.72;;;;;;;;;;5092805;28;20020;-60
2023/04/26 07:01:50;;;;;;;9.43;2.30;;;;;;;;;;5111262;28;20411;-61
2023/04/26 07:04:17;;;;;;;7.82;2.42;;;;;;;;;;5101905;28;20476;-61
2023/04/26 07:06:44;;;;;;;9.98;3.00;;;;;;;;;;5094136;28;20027;-61
2023/04/26 07:09:10;;;;;;;4.50;1.90;;;;;;;;;;5094422;28;20029;-61
2023/04/26 07:11:36;;;;;;;11.27;2.75;;;;;;;;;;5095108;28;20080;-61
2023/04/26 07:14:02;;;;;;;7.68;2.20;;;;;;;;;;5114648;28;20030;-61
2023/04/26 07:16:28;;;;;;;10.20;2.25;;;;;;;;;;5114642;28;20115;-61
2023/04/26 07:18:57;;;;;;;5.68;3.00;;;;;;;;;;5114386;28;20028;-60
2023/04/26 07:21:23;;;;;;;8.38;2.38;;;;;;;;;;5113511;28;20032;-61
2023/04/26 07:23:53;;;;;;;6.40;2.17;;;;;;;;;;5114436;28;20478;-61
2023/04/26 07:26:19;;;;;;;10.48;2.45;;;;;;;;;;5114536;28;20102;-61
2023/04/26 07:28:45;;;;;;;6.00;2.38;;;;;;;;;;5114496;28;20081;-60
2023/04/26 07:31:11;;;;;;;7.80;3.65;;;;;;;;;;5114546;28;20032;-60
2023/04/26 07:33:37;;;;;;;11.63;3.58;;;;;;;;;;5114543;28;20023;-62
2023/04/26 07:36:04;;;;;;;10.30;2.70;;;;;;;;;;5114602;28;20028;-60
2023/04/26 07:38:30;;;;;;;10.00;2.72;;;;;;;;;;5113079;28;20028;-61
2023/04/26 07:40:57;;;;;;;8.65;2.55;;;;;;;;;;5114294;28;20023;-60
2023/04/26 07:43:23;;;;;;;6.15;2.17;;;;;;;;;;5114384;28;20068;-61
2023/04/26 07:45:49;;;;;;;9.35;2.38;;;;;;;;;;5114144;28;20028;-60
2023/04/26 07:48:15;;;;;;;8.65;2.80;;;;;;;;;;5113701;28;20051;-61
2023/04/26 07:50:41;;;;;;;8.07;2.33;;;;;;;;;;5114040;28;20036;-61
2023/04/26 07:53:07;;;;;;;5.40;2.60;;;;;;;;;;5114073;28;20077;-61
2023/04/26 07:55:33;;;;;;;5.40;2.35;;;;;;;;;;5098410;28;20036;-61
2023/04/26 07:57:59;;;;;;;8.45;2.13;;;;;;;;;;5093585;28;20055;-60
2023/04/26 08:00:25;;;;;;;12.27;2.50;;;;;;;;;;5093665;28;20028;-61
2023/04/26 08:02:51;;;;;;;17.63;2.25;;;;;;;;;;5093234;28;20046;-61
2023/04/26 08:05:18;;;;;;;8.73;2.55;;;;;;;;;;5093269;28;20449;-61
2023/04/26 08:07:44;;;;;;;10.98;2.70;;;;;;;;;;5093432;28;20027;-60
2023/04/26 08:10:10;;;;;;;9.90;2.53;;;;;;;;;;5093108;28;20115;-60
2023/04/26 08:12:37;;;;;;;12.70;2.60;;;;;;;;;;5091771;28;20027;-61
2023/04/26 08:15:04;;;;;;;8.15;2.20;;;;;;;;;;5093035;28;20575;-60
2023/04/26 08:17:31;;;;;;;7.68;2.22;;;;;;;;;;5092929;28;20023;-61
2023/04/26 08:19:57;;;;;;;10.05;2.88;;;;;;;;;;5092664;28;20071;-60
2023/04/26 08:22:24;;;;;;;11.43;2.78;;;;;;;;;;5092375;28;20111;-60
2023/04/26 08:24:50;;;;;;;12.15;2.78;;;;;;;;;;5093900;28;20476;-61
2023/04/26 08:27:18;;;;;;;11.70;2.67;;;;;;;;;;5113202;28;20035;-61
2023/04/26 08:29:44;;;;;;;8.88;2.60;;;;;;;;;;5113160;28;20104;-60
2023/04/26 08:32:10;;;;;;;7.75;2.55;;;;;;;;;;5113480;28;20035;-61
2023/04/26 08:34:36;;;;;;;12.68;3.65;;;;;;;;;;5113136;28;20546;-61
2023/04/26 08:37:02;;;;;;;7.57;2.15;;;;;;;;;;5112996;28;20031;-61
2023/04/26 08:39:28;;;;;;;8.18;2.50;;;;;;;;;;5113042;28;20491;-61
2023/04/26 08:41:54;;;;;;;10.60;2.53;;;;;;;;;;5094686;28;20036;-60
2023/04/26 08:44:22;;;;;;;7.32;2.38;;;;;;;;;;5092623;28;20278;-60
2023/04/26 08:46:49;;;;;;;8.10;1.98;;;;;;;;;;5092624;28;20314;-61
2023/04/26 08:49:34;;;;;;;7.82;2.28;;;;;;;;;;5091960;28;20097;-61
2023/04/26 08:52:00;;;;;;;9.85;2.33;;;;;;;;;;5092445;28;20024;-60
2023/04/26 08:54:26;;;;;;;8.13;1.83;;;;;;;;;;5092343;28;20487;-61
2023/04/26 08:56:54;;;;;;;3.83;2.40;;;;;;;;;;5092424;28;20431;-61
2023/04/26 08:59:20;;;;;;;8.52;2.25;;;;;;;;;;5092464;28;20024;-61
2023/04/26 09:01:47;;;;;;;4.93;2.30;;;;;;;;;;5092431;28;20016;-61
2023/04/26 09:04:13;;;;;;;9.07;2.03;;;;;;;;;;5091737;28;20027;-62
2023/04/26 09:06:39;;;;;;;8.30;2.15;;;;;;;;;;5092182;28;20096;-61
2023/04/26 09:09:07;;;;;;;8.30;1.88;;;;;;;;;;5092215;28;20085;-61
2023/04/26 09:11:53;;;;;;;5.82;1.92;;;;;;;;;;5091993;28;20024;-60
2023/04/26 09:14:19;;;;;;;6.90;2.13;;;;;;;;;;5092181;28;20025;-61
2023/04/26 09:16:45;;;;;;;8.80;1.80;;;;;;;;;;5092051;28;20088;-62
2023/04/26 09:19:11;;;;;;;9.15;2.13;;;;;;;;;;5091880;28;20074;-61
2023/04/26 09:21:44;;;;;;;6.20;2.33;;;;;;;;;;5091391;28;20024;-61
2023/04/26 09:24:10;;;;;;;7.60;2.15;;;;;;;;;;5112121;28;20411;-61
2023/04/26 09:26:36;;;;;;;6.45;1.90;;;;;;;;;;5112305;28;20445;-61
2023/04/26 09:29:15;;;;;;;7.00;2.13;;;;;;;;;;5112429;28;20126;-61
2023/04/26 09:31:49;;;;;;;5.25;1.90;;;;;;;;;;5110658;28;20597;-61
2023/04/26 09:34:15;;;;;;;5.88;1.60;;;;;;;;;;5112313;28;20027;-60
2023/04/26 09:36:52;;;;;;;10.27;2.47;;;;;;;;;;5108639;28;20451;-61
2023/04/26 09:39:38;;;;;;;6.50;2.50;;;;;;;;;;5112429;28;20240;-60
2023/04/26 09:42:04;;;;;;;7.00;1.70;;;;;;;;;;5112051;28;20023;-61
2023/04/26 09:44:31;;;;;;;5.75;2.05;;;;;;;;;;5111664;28;20365;-62
2023/04/26 09:46:58;;;;;;;7.47;2.35;;;;;;;;;;5111745;28;20052;-61
2023/04/26 09:49:26;;;;;;;4.25;2.08;;;;;;;;;;5111911;28;20027;-61
2023/04/26 09:52:01;;;;;;;7.63;2.30;;;;;;;;;;5101085;28;20047;-61
2023/04/26 09:54:41;;;;;;;4.97;2.10;;;;;;;;;;5091278;28;20084;-61
2023/04/26 09:57:08;;;;;;;4.65;1.80;;;;;;;;;;5091454;28;20024;-61
2023/04/26 09:59:43;;;;;;;9.23;1.92;;;;;;;;;;5091264;28;20028;-61
2023/04/26 10:02:12;;;;;;;5.45;1.63;;;;;;;;;;5091194;28;20066;-61
2023/04/26 10:04:38;;;;;;;5.45;1.60;;;;;;;;;;5091511;28;20035;-61
2023/04/26 10:07:05;;;;;;;5.10;1.73;;;;;;;;;;5090714;28;20016;-62
2023/04/26 10:09:32;;;;;;;8.07;2.10;;;;;;;;;;5111240;28;20504;-60
2023/04/26 10:11:58;;;;;;;6.20;2.00;;;;;;;;;;5111359;28;20099;-61
2023/04/26 10:14:25;;;;;;;5.65;1.70;;;;;;;;;;5111582;28;20083;-61
2023/04/26 10:16:52;;;;;;;4.43;1.95;;;;;;;;;;5111676;28;20103;-60
2023/04/26 10:19:19;;;;;;;10.05;1.90;;;;;;;;;;5111365;28;20019;-61
2023/04/26 10:21:45;;;;;;;7.75;2.00;;;;;;;;;;5111395;28;20026;-61
2023/04/26 10:24:11;;;;;;;2.65;1.83;;;;;;;;;;5107551;28;22198;-61
2023/04/26 10:26:55;;;;;;;4.78;2.22;;;;;;;;;;5090944;28;20123;-61
2023/04/26 10:29:22;;;;;;;7.53;1.95;;;;;;;;;;5091142;28;20507;-61
2023/04/26 10:32:18;;;;;;;4.80;1.67;;;;;;;;;;5089827;28;20453;-61
2023/04/26 10:34:45;;;;;;;4.45;1.60;;;;;;;;;;5089965;28;20069;-61
2023/04/26 10:37:15;;;;;;;8.80;2.10;;;;;;;;;;5094627;28;20020;-60
2023/04/26 10:39:42;;;;;;;7.63;2.10;;;;;;;;;;5095463;28;20016;-61
2023/04/26 10:42:22;;;;;;;5.20;1.63;;;;;;;;;;5111067;28;20481;-61
2023/04/26 10:44:48;;;;;;;6.63;2.05;;;;;;;;;;5115310;28;20023;-61
2023/04/26 10:47:22;;;;;;;8.30;2.20;;;;;;;;;;5114984;28;20040;-61
2023/04/26 10:49:48;;;;;;;4.25;2.45;;;;;;;;;;5115219;28;20036;-61
2023/04/26 10:52:15;;;;;;;8.80;2.50;;;;;;;;;;5115428;28;20027;-61
2023/04/26 10:54:58;;;;;;;7.53;2.20;;;;;;;;;;5114120;28;20404;-60
2023/04/26 10:57:45;;;;;;;7.13;2.15;;;;;;;;;;5111684;28;20065;-61
2023/04/26 11:00:15;;;;;;;7.63;2.35;;;;;;;;;;5104548;28;20164;-61
2023/04/26 11:02:46;;;;;;;9.35;3.00;;;;;;;;;;5115268;28;20163;-61
2023/04/26 11:05:32;;;;;;;11.18;3.20;;;;;;;;;;5115414;28;20522;-61
2023/04/26 11:08:18;;;;;;;11.05;2.72;;;;;;;;;;5115007;28;20110;-61
2023/04/26 11:10:51;;;;;;;7.43;3.00;;;;;;;;;;5107372;28;20048;-61
2023/04/26 11:13:18;;;;;;;6.85;2.65;;;;;;;;;;5114978;28;20020;-61
2023/04/26 11:15:45;;;;;;;4.32;2.63;;;;;;;;;;5114797;28;20027;-60
2023/04/26 11:18:11;;;;;;;10.57;3.20;;;;;;;;;;5113431;28;20024;-61
2023/04/26 11:20:37;;;;;;;5.95;2.90;;;;;;;;;;5114569;28;20024;-60
2023/04/26 11:23:08;;;;;;;6.93;3.25;;;;;;;;;;5115025;28;20015;-60
2023/04/26 11:25:34;;;;;;;5.80;2.63;;;;;;;;;;5114960;28;20019;-59
2023/04/26 11:28:01;;;;;;;10.02;2.40;;;;;;;;;;5097332;28;20103;-61
2023/04/26 11:30:30;;;;;;;8.85;2.80;;;;;;;;;;5094080;28;20178;-60
2023/04/26 11:32:57;;;;;;;8.10;3.22;;;;;;;;;;5094242;28;20043;-60
2023/04/26 11:35:24;;;;;;;7.72;2.80;;;;;;;;;;5093999;28;20099;-60
2023/04/26 11:37:51;;;;;;;8.40;2.85;;;;;;;;;;5093980;28;20176;-62
2023/04/26 11:40:17;;;;;;;8.38;2.70;;;;;;;;;;5094261;28;20431;-61
2023/04/26 11:42:44;;;;;;;8.43;3.20;;;;;;;;;;5093993;28;20050;-61
2023/04/26 11:45:11;;;;;;;6.00;2.70;;;;;;;;;;5093235;28;20069;-61
2023/04/26 11:47:37;;;;;;;9.07;3.53;;;;;;;;;;5092648;28;20438;-61
2023/04/26 11:50:03;;;;;;;9.27;3.00;;;;;;;;;;5093440;28;20054;-61
2023/04/26 11:52:30;;;;;;;8.60;2.50;;;;;;;;;;5093587;28;20078;-61
2023/04/26 11:55:05;;;;;;;8.05;2.95;;;;;;;;;;5093588;28;20473;-61
2023/04/26 11:57:32;;;;;;;6.97;2.92;;;;;;;;;;5093810;28;20116;-60
2023/04/26 12:00:11;;;;;;;11.05;2.90;;;;;;;;;;5093022;28;20038;-60
2023/04/26 12:02:37;;;;;;;6.78;3.38;;;;;;;;;;5093885;28;20353;-62
2023/04/26 12:05:03;;;;;;;9.32;2.92;;;;;;;;;;5093832;28;20160;-61
2023/04/26 12:07:32;;;;;;;10.43;2.83;;;;;;;;;;5092712;28;20028;-61
2023/04/26 12:10:07;;;;;;;9.32;3.15;;;;;;;;;;5092970;28;20106;-60
2023/04/26 12:12:33;;;;;;;7.28;2.70;;;;;;;;;;5093376;28;20020;-61
2023/04/26 12:15:00;;;;;;;6.00;2.47;;;;;;;;;;5093139;28;20097;-61
2023/04/26 12:17:27;;;;;;;4.90;2.20;;;;;;;;;;5092394;28;20081;-61
2023/04/26 12:19:54;;;;;;;8.88;2.88;;;;;;;;;;5093104;28;20077;-61
2023/04/26 12:22:21;;;;;;;8.75;2.63;;;;;;;;;;5093233;28;20020;-61
2023/04/26 12:24:47;;;;;;;6.00;2.88;;;;;;;;;;5092864;28;20051;-61
2023/04/26 12:27:20;;;;;;;4.97;2.50;;;;;;;;;;5093050;28;20031;-62
2023/04/26 12:29:46;;;;;;;8.25;3.17;;;;;;;;;;5092946;28;20414;-61
2023/04/26 12:32:13;;;;;;;7.55;3.13;;;;;;;;;;5092942;28;20472;-61
2023/04/26 12:34:38;;;;;;;10.98;3.15;;;;;;;;;;5093081;28;20028;-61
2023/04/26 12:37:05;;;;;;;7.90;2.85;;;;;;;;;;5092353;28;20028;-61
2023/04/26 12:39:31;;;;;;;6.25;3.00;;;;;;;;;;5092863;28;20110;-60
2023/04/26 12:41:57;;;;;;;4.55;2.72;;;;;;;;;;5092793;28;20031;-61
2023/04/26 12:44:23;;;;;;;9.35;3.50;;;;;;;;;;5092909;28;20400;-61
2023/04/26 12:46:50;;;;;;;9.73;3.65;;;;;;;;;;5092627;28;20048;-60
2023/04/26 12:49:16;;;;;;;7.50;3.92;;;;;;;;;;5092478;28;20032;-61
2023/04/26 12:51:42;;;;;;;7.65;3.50;;;;;;;;;;5092529;28;20166;-61
2023/04/26 12:54:08;;;;;;;7.65;3.22;;;;;;;;;;5091866;28;20090;-62
2023/04/26 12:56:37;;;;;;;9.40;3.80;;;;;;;;;;5092435;28;20024;-61
2023/04/26 12:59:03;;;;;;;6.90;3.45;;;;;;;;;;5092017;28;20106;-60
2023/04/26 13:01:30;;;;;;;6.55;3.25;;;;;;;;;;5092789;28;20426;-62
2023/04/26 13:03:58;;;;;;;9.05;3.08;;;;;;;;;;5092215;28;20043;-61
2023/04/26 13:06:26;;;;;;;9.02;3.70;;;;;;;;;;5091957;28;20028;-62
2023/04/26 13:08:52;;;;;;;6.95;3.28;;;;;;;;;;5097597;28;20023;-61
2023/04/26 13:11:18;;;;;;;8.95;3.90;;;;;;;;;;5112983;28;20032;-61
2023/04/26 13:13:44;;;;;;;9.18;3.50;;;;;;;;;;5112687;28;20034;-60
2023/04/26 13:16:11;;;;;;;8.13;3.67;;;;;;;;;;5112330;28;20023;-62
2023/04/26 13:18:37;;;;;;;6.70;3.50;;;;;;;;;;5112334;28;20031;-60
2023/04/26 13:21:03;;;;;;;7.43;3.40;;;;;;;;;;5112389;28;20081;-61
2023/04/26 13:23:29;;;;;;;8.98;3.50;;;;;;;;;;5112411;28;20054;-60
2023/04/26 13:25:55;;;;;;;6.90;3.05;;;;;;;;;;5110684;28;20023;-60
2023/04/26 13:28:21;;;;;;;6.93;3.28;;;;;;;;;;5112215;28;20022;-61
2023/04/26 13:30:47;;;;;;;7.57;3.70;;;;;;;;;;5112146;28;20027;-61
2023/04/26 13:33:13;;;;;;;10.00;3.70;;;;;;;;;;5112076;28;20020;-60
2023/04/26 13:35:40;;;;;;;8.15;3.92;;;;;;;;;;5112181;28;20023;-60
2023/04/26 13:38:06;;;;;;;6.90;3.67;;;;;;;;;;5112069;28;20380;-61
2023/04/26 13:40:32;;;;;;;9.43;3.20;;;;;;;;;;5111842;28;20028;-61
2023/04/26 13:42:58;;;;;;;9.40;3.47;;;;;;;;;;5100306;28;20028;-60
2023/04/26 13:45:24;;;;;;;7.55;3.83;;;;;;;;;;5091627;28;20027;-61
2023/04/26 13:47:50;;;;;;;7.22;3.35;;;;;;;;;;5091331;28;20511;-61
2023/04/26 13:50:17;;;;;;;9.45;3.75;;;;;;;;;;5091343;28;20425;-61
2023/04/26 13:52:43;;;;;;;8.80;3.15;;;;;;;;;;5091534;28;20020;-60
2023/04/26 13:55:09;;;;;;;9.35;4.15;;;;;;;;;;5091487;28;20110;-60
2023/04/26 13:57:35;;;;;;;7.53;3.70;;;;;;;;;;5091242;28;20069;-60
2023/04/26 14:00:02;;;;;;;6.50;2.90;;;;;;;;;;5091114;28;20039;-59
2023/04/26 14:02:29;;;;;;;12.25;3.63;;;;;;;;;;5091571;28;20030;-60
2023/04/26 14:04:55;;;;;;;8.15;3.47;;;;;;;;;;5091289;28;20024;-60
2023/04/26 14:07:21;;;;;;;6.68;3.88;;;;;;;;;;5091066;28;20020;-60
2023/04/26 14:09:47;;;;;;;7.75;4.00;;;;;;;;;;5090337;28;20032;-61
2023/04/26 14:12:13;;;;;;;7.03;3.38;;;;;;;;;;5090370;28;20131;-60
2023/04/26 14:14:40;;;;;;;9.00;3.85;;;;;;;;;;5091208;28;20021;-60
2023/04/26 14:17:06;;;;;;;7.25;3.47;;;;;;;;;;5091135;28;20095;-61
2023/04/26 14:19:32;;;;;;;10.32;3.50;;;;;;;;;;5091125;28;20027;-60
2023/04/26 14:21:58;;;;;;;9.80;3.22;;;;;;;;;;5091226;28;20262;-61
2023/04/26 14:24:24;;;;;;;8.55;3.67;;;;;;;;;;5090919;28;20238;-60
2023/04/26 14:26:50;;;;;;;9.35;4.25;;;;;;;;;;5091109;28;20126;-61
2023/04/26 14:29:16;;;;;;;9.20;4.53;;;;;;;;;;5090513;28;20089;-60
2023/04/26 14:31:43;;;;;;;9.02;3.63;;;;;;;;;;5106471;28;20031;-61
2023/04/26 14:34:09;;;;;;;11.40;4.30;;;;;;;;;;5111411;28;20028;-60
2023/04/26 14:36:35;;;;;;;7.80;4.20;;;;;;;;;;5111207;28;20099;-60
2023/04/26 14:39:02;;;;;;;7.10;3.78;;;;;;;;;;5111256;28;20026;-60
2023/04/26 14:41:28;;;;;;;7.60;3.97;;;;;;;;;;5111309;28;20034;-61